Time;durP1;ratioP1;P1;durP2;ratioP2;P2;SDS_P1;SDS_P2;PMS_P1;PMS_P2;Temp;Humidity;BMP_temperature;BMP_pressure;BME280_temperature;BME280_humidity;BME280_pressure;Samples;Min_cycle;Max_cycle;Signal;HPM_P1;HPM_P2
2021/08/03 00:02:24;;;;;;;35.90;33.97;;;;;;;;;;4984978;28;20364;-87
2021/08/03 00:04:51;;;;;;;7.35;3.38;;;;;;;;;;4983910;28;20050;-86
2021/08/03 00:07:18;;;;;;;5.45;4.05;;;;;;;;;;4989004;28;20022;-85
2021/08/03 00:09:44;;;;;;;3.55;3.05;;;;;;;;;;4983738;28;20049;-86
2021/08/03 00:12:14;;;;;;;5.53;3.60;;;;;;;;;;4990120;28;20062;-86
2021/08/03 00:14:43;;;;;;;5.32;3.53;;;;;;;;;;4999889;28;20368;-86
2021/08/03 00:17:12;;;;;;;10.32;6.57;;;;;;;;;;4983044;28;20022;-86
2021/08/03 00:19:38;;;;;;;10.68;6.57;;;;;;;;;;4982040;28;20070;-86
2021/08/03 00:22:04;;;;;;;11.10;6.10;;;;;;;;;;4983957;28;20057;-85
2021/08/03 00:24:29;;;;;;;5.47;4.50;;;;;;;;;;4982117;28;20166;-85
2021/08/03 00:26:54;;;;;;;5.70;5.18;;;;;;;;;;4983479;28;20077;-85
2021/08/03 00:29:20;;;;;;;5.43;4.57;;;;;;;;;;4983346;28;20078;-86
2021/08/03 00:31:45;;;;;;;5.00;4.05;;;;;;;;;;4999152;28;20022;-87
2021/08/03 00:34:11;;;;;;;2.95;2.70;;;;;;;;;;5022798;28;20474;-86
2021/08/03 00:36:36;;;;;;;3.72;2.40;;;;;;;;;;5024622;28;20107;-84
2021/08/03 00:39:01;;;;;;;2.78;2.17;;;;;;;;;;5023584;28;20022;-85
2021/08/03 00:41:29;;;;;;;3.13;2.63;;;;;;;;;;5025269;28;20068;-85
2021/08/03 00:43:54;;;;;;;3.05;2.85;;;;;;;;;;5025333;28;20033;-86
2021/08/03 00:46:20;;;;;;;5.32;4.07;;;;;;;;;;5027524;28;20040;-86
2021/08/03 00:48:45;;;;;;;5.53;3.40;;;;;;;;;;5028785;28;20029;-87
2021/08/03 00:51:10;;;;;;;4.70;3.30;;;;;;;;;;5040517;28;20065;-84
2021/08/03 00:53:36;;;;;;;4.90;3.25;;;;;;;;;;5034738;28;20045;-84
2021/08/03 00:56:01;;;;;;;4.18;3.28;;;;;;;;;;5041016;28;20430;-86
2021/08/03 00:58:27;;;;;;;7.03;2.80;;;;;;;;;;5027295;28;20502;-87
2021/08/03 01:00:56;;;;;;;4.18;3.30;;;;;;;;;;5024208;28;20231;-86
2021/08/03 01:03:22;;;;;;;3.92;3.53;;;;;;;;;;5022788;28;20045;-86
2021/08/03 01:05:53;;;;;;;4.68;3.50;;;;;;;;;;5022284;28;20041;-86
2021/08/03 01:08:28;;;;;;;3.90;3.22;;;;;;;;;;5023000;28;20462;-87
2021/08/03 01:11:05;;;;;;;4.70;3.38;;;;;;;;;;5022082;28;20034;-85
2021/08/03 01:13:37;;;;;;;7.07;3.13;;;;;;;;;;5024256;28;20052;-85
2021/08/03 01:16:05;;;;;;;4.30;3.53;;;;;;;;;;5023021;28;20432;-86
2021/08/03 01:18:49;;;;;;;2.88;2.67;;;;;;;;;;5022690;28;20014;-85
2021/08/03 01:21:27;;;;;;;2.85;2.65;;;;;;;;;;5021705;28;20018;-85
2021/08/03 01:24:07;;;;;;;4.65;3.75;;;;;;;;;;5019310;28;20050;-84
2021/08/03 01:26:36;;;;;;;3.40;3.10;;;;;;;;;;5023175;28;20132;-87
2021/08/03 01:29:04;;;;;;;3.80;3.38;;;;;;;;;;5022610;28;20073;-86
2021/08/03 01:31:31;;;;;;;3.60;3.30;;;;;;;;;;5011465;28;20057;-86
2021/08/03 01:34:17;;;;;;;6.40;3.58;;;;;;;;;;4984722;28;20023;-86
2021/08/03 01:36:42;;;;;;;;;;;;;;;;;;4984342;28;20053;-86
2021/08/03 01:39:08;;;;;;;4.20;3.13;;;;;;;;;;4985344;28;19906;-86
2021/08/03 01:41:34;;;;;;;4.07;3.58;;;;;;;;;;4991867;28;20149;-86
2021/08/03 01:44:02;;;;;;;5.88;3.83;;;;;;;;;;4988730;28;20026;-87
2021/08/03 01:46:27;;;;;;;4.55;3.88;;;;;;;;;;4987841;28;20465;-86
2021/08/03 01:48:54;;;;;;;3.70;3.38;;;;;;;;;;4988023;28;20019;-85
2021/08/03 01:51:20;;;;;;;4.25;3.30;;;;;;;;;;4993702;28;20407;-86
2021/08/03 01:53:46;;;;;;;6.72;3.83;;;;;;;;;;4989370;28;20031;-85
2021/08/03 01:56:11;;;;;;;4.15;3.63;;;;;;;;;;4987641;28;20022;-85
2021/08/03 01:58:39;;;;;;;3.25;2.95;;;;;;;;;;4987176;28;20026;-85
2021/08/03 02:01:05;;;;;;;7.25;4.03;;;;;;;;;;4986137;28;20396;-85
2021/08/03 02:03:31;;;;;;;5.70;3.17;;;;;;;;;;4997656;28;20026;-85
2021/08/03 02:05:56;;;;;;;3.78;3.10;;;;;;;;;;4986277;28;20045;-85
2021/08/03 02:08:22;;;;;;;4.45;3.53;;;;;;;;;;4989931;28;20019;-85
2021/08/03 02:10:48;;;;;;;8.23;4.63;;;;;;;;;;4987418;28;20631;-84
2021/08/03 02:13:14;;;;;;;4.65;3.58;;;;;;;;;;4988978;28;20019;-86
2021/08/03 02:15:39;;;;;;;5.32;3.95;;;;;;;;;;4988198;28;20380;-85
2021/08/03 02:18:05;;;;;;;6.47;3.90;;;;;;;;;;4986536;28;20018;-84
2021/08/03 02:20:30;;;;;;;7.28;4.63;;;;;;;;;;4987475;28;20479;-85
2021/08/03 02:22:55;;;;;;;3.45;3.08;;;;;;;;;;4988180;28;20037;-86
2021/08/03 02:25:21;;;;;;;3.22;2.90;;;;;;;;;;4988428;28;20022;-86
2021/08/03 02:27:46;;;;;;;3.20;2.90;;;;;;;;;;4990196;28;20044;-86
2021/08/03 02:30:12;;;;;;;3.50;3.20;;;;;;;;;;4987359;28;20019;-87
2021/08/03 02:33:03;;;;;;;4.43;3.55;;;;;;;;;;5015693;28;20056;-85
2021/08/03 02:35:32;;;;;;;4.70;4.28;;;;;;;;;;5020872;28;20429;-85
2021/08/03 02:38:06;;;;;;;3.35;3.15;;;;;;;;;;5023040;28;20080;-87
2021/08/03 02:40:31;;;;;;;2.85;2.63;;;;;;;;;;5010598;28;20080;-86
2021/08/03 02:42:57;;;;;;;3.10;2.85;;;;;;;;;;5024582;28;20025;-85
2021/08/03 02:45:23;;;;;;;3.80;3.38;;;;;;;;;;5024693;28;20029;-86
2021/08/03 02:47:54;;;;;;;4.07;3.67;;;;;;;;;;5023705;28;20018;-86
2021/08/03 02:50:21;;;;;;;3.75;3.40;;;;;;;;;;5005771;28;20017;-85
2021/08/03 02:52:48;;;;;;;4.13;3.55;;;;;;;;;;5024878;28;20041;-86
2021/08/03 02:55:24;;;;;;;3.65;3.10;;;;;;;;;;5027204;28;20024;-86
2021/08/03 02:58:00;;;;;;;3.30;2.72;;;;;;;;;;5026421;28;20026;-86
2021/08/03 03:00:26;;;;;;;4.72;3.78;;;;;;;;;;5027560;28;20029;-85
2021/08/03 03:02:51;;;;;;;6.25;3.60;;;;;;;;;;5023890;28;20034;-85
2021/08/03 03:05:24;;;;;;;4.03;3.50;;;;;;;;;;5026911;28;20006;-86
2021/08/03 03:07:51;;;;;;;3.45;3.13;;;;;;;;;;5007735;28;20076;-85
2021/08/03 03:10:20;;;;;;;3.78;3.47;;;;;;;;;;5011784;28;20505;-86
2021/08/03 03:12:50;;;;;;;3.95;3.05;;;;;;;;;;5024793;28;20083;-86
2021/08/03 03:15:17;;;;;;;5.18;3.35;;;;;;;;;;5022115;28;20022;-85
2021/08/03 03:17:42;;;;;;;3.97;3.45;;;;;;;;;;5022848;28;20025;-85
2021/08/03 03:20:08;;;;;;;5.30;4.07;;;;;;;;;;5005803;28;20425;-86
2021/08/03 03:22:37;;;;;;;6.35;4.00;;;;;;;;;;5025572;28;20080;-86
2021/08/03 03:25:03;;;;;;;5.07;4.20;;;;;;;;;;5023771;28;20021;-85
2021/08/03 03:27:29;;;;;;;4.03;3.50;;;;;;;;;;5023492;28;20588;-86
2021/08/03 03:29:55;;;;;;;5.95;3.67;;;;;;;;;;5026477;28;20029;-88
2021/08/03 03:32:20;;;;;;;4.30;3.90;;;;;;;;;;5025626;28;20050;-87
2021/08/03 03:34:46;;;;;;;3.90;3.35;;;;;;;;;;5024984;28;20025;-87
2021/08/03 03:37:11;;;;;;;6.00;3.13;;;;;;;;;;5026287;28;20030;-87
2021/08/03 03:39:38;;;;;;;4.70;3.72;;;;;;;;;;5026173;28;20016;-89
2021/08/03 03:42:05;;;;;;;3.45;3.05;;;;;;;;;;5015506;28;20383;-89
2021/08/03 03:44:30;;;;;;;5.50;3.50;;;;;;;;;;5024514;28;20088;-89
2021/08/03 03:47:06;;;;;;;3.92;3.40;;;;;;;;;;5024431;28;20434;-87
2021/08/03 03:49:44;;;;;;;4.40;4.00;;;;;;;;;;5028359;28;20025;-88
2021/08/03 03:52:09;;;;;;;3.88;3.22;;;;;;;;;;5008172;28;20026;-88
2021/08/03 03:54:36;;;;;;;4.10;3.70;;;;;;;;;;5026263;28;20027;-86
2021/08/03 03:57:03;;;;;;;4.10;3.30;;;;;;;;;;5029624;28;20387;-86
2021/08/03 03:59:29;;;;;;;4.00;3.55;;;;;;;;;;5039483;28;20030;-86
2021/08/03 04:01:58;;;;;;;3.40;3.00;;;;;;;;;;5046273;28;20318;-86
2021/08/03 04:04:24;;;;;;;10.43;9.38;;;;;;;;;;5039625;28;20041;-88
2021/08/03 04:06:50;;;;;;;3.67;3.38;;;;;;;;;;5030497;28;20037;-87
2021/08/03 04:09:16;;;;;;;3.92;3.50;;;;;;;;;;5030675;28;20100;-88
2021/08/03 04:11:45;;;;;;;3.67;3.47;;;;;;;;;;5028379;28;20068;-84
2021/08/03 04:14:12;;;;;;;4.35;3.60;;;;;;;;;;5029603;28;20017;-86
2021/08/03 04:16:38;;;;;;;3.10;2.58;;;;;;;;;;5025485;28;20057;-86
2021/08/03 04:19:03;;;;;;;4.50;3.35;;;;;;;;;;5006447;28;20037;-86
2021/08/03 04:21:29;;;;;;;4.90;2.53;;;;;;;;;;5025655;28;20017;-85
2021/08/03 04:23:54;;;;;;;4.72;4.03;;;;;;;;;;5026314;28;20018;-85
2021/08/03 04:26:19;;;;;;;3.13;2.83;;;;;;;;;;5023638;28;20025;-86
2021/08/03 04:28:44;;;;;;;3.53;2.88;;;;;;;;;;5027855;28;20101;-85
2021/08/03 04:31:10;;;;;;;3.58;3.28;;;;;;;;;;5023015;28;20065;-85
2021/08/03 04:33:37;;;;;;;3.20;3.00;;;;;;;;;;5027210;28;20026;-85
2021/08/03 04:36:02;;;;;;;4.15;3.10;;;;;;;;;;5007121;28;20044;-86
2021/08/03 04:38:28;;;;;;;3.90;3.20;;;;;;;;;;5027273;28;20033;-86
2021/08/03 04:40:53;;;;;;;3.65;3.30;;;;;;;;;;5024708;28;20053;-84
2021/08/03 04:43:18;;;;;;;3.53;3.22;;;;;;;;;;5024688;28;20026;-85
2021/08/03 04:45:44;;;;;;;7.95;3.60;;;;;;;;;;5026576;28;20021;-85
2021/08/03 04:48:09;;;;;;;4.63;3.65;;;;;;;;;;5023552;28;20018;-83
2021/08/03 04:50:34;;;;;;;3.33;3.03;;;;;;;;;;5025826;28;20030;-84
2021/08/03 04:52:59;;;;;;;4.07;3.47;;;;;;;;;;5022955;28;20022;-86
2021/08/03 04:55:25;;;;;;;3.30;2.88;;;;;;;;;;5026018;28;20026;-84
2021/08/03 04:57:50;;;;;;;4.38;3.28;;;;;;;;;;5022194;28;20116;-84
2021/08/03 05:00:16;;;;;;;6.95;3.75;;;;;;;;;;5007915;28;20351;-85
2021/08/03 05:02:42;;;;;;;3.20;2.90;;;;;;;;;;5016500;28;20026;-85
2021/08/03 05:05:08;;;;;;;3.80;3.40;;;;;;;;;;5023371;28;20034;-85
2021/08/03 05:07:33;;;;;;;4.35;3.05;;;;;;;;;;5028141;28;20044;-86
2021/08/03 05:10:03;;;;;;;4.90;3.40;;;;;;;;;;5026023;28;20013;-87
2021/08/03 05:12:28;;;;;;;3.78;3.38;;;;;;;;;;5033918;28;20030;-86
2021/08/03 05:15:00;;;;;;;3.58;3.28;;;;;;;;;;5029697;28;20014;-86
2021/08/03 05:17:25;;;;;;;4.07;2.95;;;;;;;;;;5030161;28;20030;-86
2021/08/03 05:19:51;;;;;;;5.18;3.63;;;;;;;;;;5031553;28;20068;-89
2021/08/03 05:22:16;;;;;;;3.60;3.30;;;;;;;;;;5029359;28;20423;-87
2021/08/03 05:24:42;;;;;;;4.03;3.70;;;;;;;;;;5035008;28;20014;-87
2021/08/03 05:27:07;;;;;;;4.22;3.10;;;;;;;;;;5025196;28;20144;-89
2021/08/03 05:29:32;;;;;;;3.88;3.55;;;;;;;;;;5029398;28;20018;-85
2021/08/03 05:31:58;;;;;;;4.55;3.78;;;;;;;;;;5029014;28;20109;-87
2021/08/03 05:34:23;;;;;;;4.50;3.90;;;;;;;;;;5032136;28;20021;-86
2021/08/03 05:36:48;;;;;;;4.57;3.90;;;;;;;;;;5007901;28;20032;-87
2021/08/03 05:39:14;;;;;;;6.03;3.88;;;;;;;;;;5011694;28;20408;-87
2021/08/03 05:41:39;;;;;;;4.30;4.00;;;;;;;;;;5022319;28;20013;-87
2021/08/03 05:44:07;;;;;;;3.53;3.20;;;;;;;;;;5024279;28;20040;-87
2021/08/03 05:46:33;;;;;;;5.28;3.42;;;;;;;;;;5011389;28;20018;-86
2021/08/03 05:48:58;;;;;;;3.95;3.60;;;;;;;;;;5025473;28;20021;-85
2021/08/03 05:51:23;;;;;;;5.55;3.30;;;;;;;;;;5027003;28;20402;-86
2021/08/03 05:53:48;;;;;;;3.47;3.28;;;;;;;;;;5031333;28;20483;-85
2021/08/03 05:56:14;;;;;;;5.47;4.45;;;;;;;;;;5011076;28;20053;-85
2021/08/03 05:58:39;;;;;;;5.20;4.70;;;;;;;;;;5034869;28;20018;-85
2021/08/03 06:01:04;;;;;;;3.45;3.20;;;;;;;;;;5029046;28;20021;-82
2021/08/03 06:03:29;;;;;;;4.00;3.70;;;;;;;;;;5029173;28;20029;-87
2021/08/03 06:05:55;;;;;;;3.72;3.47;;;;;;;;;;5026343;28;20018;-82
2021/08/03 06:08:24;;;;;;;7.10;3.53;;;;;;;;;;5036043;28;20009;-82
2021/08/03 06:10:53;;;;;;;3.42;3.13;;;;;;;;;;5044259;28;20021;-81
2021/08/03 06:13:20;;;;;;;3.63;3.33;;;;;;;;;;5040657;28;20038;-81
2021/08/03 06:15:48;;;;;;;5.68;3.33;;;;;;;;;;5043532;28;20034;-84
2021/08/03 06:18:30;;;;;;;3.97;3.60;;;;;;;;;;5043557;28;20025;-86
2021/08/03 06:20:56;;;;;;;7.05;3.22;;;;;;;;;;5036044;28;20017;-84
2021/08/03 06:23:25;;;;;;;3.85;3.55;;;;;;;;;;5041917;28;20033;-84
2021/08/03 06:25:51;;;;;;;5.88;3.83;;;;;;;;;;5046790;28;20016;-86
2021/08/03 06:28:18;;;;;;;4.03;3.58;;;;;;;;;;5042605;28;20381;-85
2021/08/03 06:30:46;;;;;;;3.72;3.42;;;;;;;;;;5036833;28;20064;-86
2021/08/03 06:33:12;;;;;;;3.83;3.53;;;;;;;;;;5040526;28;20092;-84
2021/08/03 06:35:43;;;;;;;3.85;3.33;;;;;;;;;;5043055;28;20018;-84
2021/08/03 06:38:09;;;;;;;4.85;3.45;;;;;;;;;;5027420;28;20061;-83
2021/08/03 06:40:34;;;;;;;4.78;3.50;;;;;;;;;;5020552;28;20021;-87
2021/08/03 06:43:07;;;;;;;3.75;3.35;;;;;;;;;;5037357;28;20388;-84
2021/08/03 06:45:32;;;;;;;5.70;4.22;;;;;;;;;;5034738;28;20036;-84
2021/08/03 06:48:05;;;;;;;4.72;3.28;;;;;;;;;;5036107;28;20045;-82
2021/08/03 06:50:34;;;;;;;5.70;4.47;;;;;;;;;;5015770;28;20384;-84
2021/08/03 06:53:00;;;;;;;5.05;3.65;;;;;;;;;;5013072;28;20395;-86
2021/08/03 06:55:30;;;;;;;4.25;3.65;;;;;;;;;;5028029;28;20036;-88
2021/08/03 06:57:57;;;;;;;9.15;7.97;;;;;;;;;;5031261;28;20026;-86
2021/08/03 07:00:24;;;;;;;6.43;3.97;;;;;;;;;;5024463;28;20060;-87
2021/08/03 07:02:51;;;;;;;7.05;3.83;;;;;;;;;;5010522;28;20048;-85
2021/08/03 07:05:21;;;;;;;4.18;3.60;;;;;;;;;;5030385;28;20018;-86
2021/08/03 07:07:47;;;;;;;5.00;2.90;;;;;;;;;;5018329;28;20008;-86
2021/08/03 07:10:14;;;;;;;5.60;2.97;;;;;;;;;;5022088;28;20474;-85
2021/08/03 07:12:43;;;;;;;2.90;2.72;;;;;;;;;;5043067;28;20052;-85
2021/08/03 07:15:09;;;;;;;3.25;2.95;;;;;;;;;;5031311;28;20093;-85
2021/08/03 07:17:34;;;;;;;3.55;3.00;;;;;;;;;;5025353;28;20100;-87
2021/08/03 07:20:00;;;;;;;2.85;2.65;;;;;;;;;;5023844;28;20378;-86
2021/08/03 07:22:26;;;;;;;3.17;2.83;;;;;;;;;;5025821;28;20485;-86
2021/08/03 07:24:52;;;;;;;3.33;2.65;;;;;;;;;;5024633;28;20030;-86
2021/08/03 07:27:18;;;;;;;4.28;3.10;;;;;;;;;;5016694;28;20021;-86
2021/08/03 07:29:44;;;;;;;6.00;3.33;;;;;;;;;;5025980;28;20084;-87
2021/08/03 07:32:10;;;;;;;2.58;2.33;;;;;;;;;;5026177;28;20042;-86
2021/08/03 07:34:36;;;;;;;2.90;2.60;;;;;;;;;;5026794;28;20037;-86
2021/08/03 07:37:02;;;;;;;2.63;2.42;;;;;;;;;;5025011;28;20079;-86
2021/08/03 07:39:27;;;;;;;2.63;2.42;;;;;;;;;;5024502;28;20018;-87
2021/08/03 07:41:55;;;;;;;4.28;2.92;;;;;;;;;;5006331;28;20021;-84
2021/08/03 07:44:20;;;;;;;3.67;2.50;;;;;;;;;;5028378;28;20023;-86
2021/08/03 07:46:46;;;;;;;2.90;2.70;;;;;;;;;;5037145;28;20040;-85
2021/08/03 07:49:11;;;;;;;2.67;2.50;;;;;;;;;;5045902;28;20013;-87
2021/08/03 07:51:36;;;;;;;3.50;3.15;;;;;;;;;;5048212;28;20061;-87
2021/08/03 07:54:01;;;;;;;3.40;3.03;;;;;;;;;;5044679;28;20014;-86
2021/08/03 07:56:27;;;;;;;3.45;3.15;;;;;;;;;;5046393;28;20010;-86
2021/08/03 07:58:52;;;;;;;2.95;2.75;;;;;;;;;;5047606;28;20022;-87
2021/08/03 08:01:18;;;;;;;6.60;3.20;;;;;;;;;;5047060;28;20080;-87
2021/08/03 08:03:43;;;;;;;4.57;4.18;;;;;;;;;;5045542;28;20090;-86
2021/08/03 08:06:09;;;;;;;3.70;3.40;;;;;;;;;;5028405;28;20041;-87
2021/08/03 08:08:34;;;;;;;4.57;3.08;;;;;;;;;;5027209;28;20363;-86
2021/08/03 08:10:59;;;;;;;4.88;3.45;;;;;;;;;;5024697;28;20017;-87
2021/08/03 08:13:25;;;;;;;5.30;3.20;;;;;;;;;;5023672;28;20037;-86
2021/08/03 08:15:50;;;;;;;5.35;3.42;;;;;;;;;;5020551;28;20143;-87
2021/08/03 08:18:16;;;;;;;4.30;3.40;;;;;;;;;;5023895;28;20020;-86
2021/08/03 08:20:42;;;;;;;3.17;2.97;;;;;;;;;;5015848;28;20070;-86
2021/08/03 08:23:07;;;;;;;3.58;3.28;;;;;;;;;;5024485;28;20041;-86
2021/08/03 08:25:33;;;;;;;4.30;3.58;;;;;;;;;;5024961;28;20014;-85
2021/08/03 08:27:58;;;;;;;4.90;3.38;;;;;;;;;;5024782;28;20021;-83
2021/08/03 08:30:24;;;;;;;5.28;3.00;;;;;;;;;;5012583;28;20473;-84
2021/08/03 08:32:49;;;;;;;4.93;3.03;;;;;;;;;;5023941;28;20049;-86
2021/08/03 08:35:14;;;;;;;5.45;2.70;;;;;;;;;;5023701;28;20033;-85
2021/08/03 08:37:40;;;;;;;7.32;2.92;;;;;;;;;;5006974;28;20041;-85
2021/08/03 08:40:06;;;;;;;4.97;2.63;;;;;;;;;;5023710;28;20056;-87
2021/08/03 08:42:32;;;;;;;2.63;2.53;;;;;;;;;;5022013;28;20040;-86
2021/08/03 08:44:58;;;;;;;2.38;2.22;;;;;;;;;;5029070;28;20030;-87
2021/08/03 08:47:24;;;;;;;2.55;2.45;;;;;;;;;;5043523;28;20044;-87
2021/08/03 08:49:49;;;;;;;3.00;2.80;;;;;;;;;;5044225;28;20010;-85
2021/08/03 08:52:15;;;;;;;3.42;2.95;;;;;;;;;;5021625;28;20386;-86
2021/08/03 08:54:41;;;;;;;2.83;2.40;;;;;;;;;;5019913;28;20392;-86
2021/08/03 08:57:06;;;;;;;4.70;2.60;;;;;;;;;;5012342;28;20049;-86
2021/08/03 08:59:31;;;;;;;2.50;2.40;;;;;;;;;;5013897;28;20407;-86
2021/08/03 09:01:57;;;;;;;3.13;2.92;;;;;;;;;;5013498;28;20383;-87
2021/08/03 09:04:25;;;;;;;2.95;2.75;;;;;;;;;;5022882;28;20537;-86
2021/08/03 09:07:06;;;;;;;3.53;3.22;;;;;;;;;;5032947;28;20109;-86
2021/08/03 09:09:38;;;;;;;3.58;2.90;;;;;;;;;;5029585;28;20033;-85
2021/08/03 09:12:03;;;;;;;2.97;2.78;;;;;;;;;;5015308;28;20138;-86
2021/08/03 09:14:32;;;;;;;2.78;2.30;;;;;;;;;;5020795;28;20096;-86
2021/08/03 09:16:59;;;;;;;3.15;2.78;;;;;;;;;;5022738;28;20530;-87
2021/08/03 09:19:42;;;;;;;5.10;3.80;;;;;;;;;;5022701;28;20057;-86
2021/08/03 09:22:17;;;;;;;4.93;3.40;;;;;;;;;;5019244;28;20032;-87
2021/08/03 09:24:44;;;;;;;2.75;2.55;;;;;;;;;;5019605;28;20176;-86
2021/08/03 09:27:29;;;;;;;3.42;3.13;;;;;;;;;;5020908;28;20048;-87
2021/08/03 09:29:54;;;;;;;;;;;;;;;;;;5023636;28;20080;-87
2021/08/03 09:32:27;;;;;;;2.85;2.67;;;;;;;;;;5031390;28;19921;-87
2021/08/03 09:35:09;;;;;;;3.28;3.08;;;;;;;;;;5006111;28;20089;-87
2021/08/03 09:37:35;;;;;;;3.00;2.80;;;;;;;;;;5023672;28;20570;-86
2021/08/03 09:40:01;;;;;;;3.03;2.67;;;;;;;;;;5030787;28;20058;-86
2021/08/03 09:42:27;;;;;;;2.83;2.63;;;;;;;;;;5029607;28;20030;-87
2021/08/03 09:45:01;;;;;;;3.97;2.55;;;;;;;;;;5025867;28;20033;-86
2021/08/03 09:47:27;;;;;;;3.10;2.88;;;;;;;;;;5024633;28;20060;-86
2021/08/03 09:49:59;;;;;;;2.35;2.25;;;;;;;;;;5025100;28;20006;-87
2021/08/03 09:52:26;;;;;;;2.47;2.13;;;;;;;;;;5019102;28;20030;-87
2021/08/03 09:55:11;;;;;;;2.97;2.40;;;;;;;;;;5011488;28;20432;-87
2021/08/03 09:57:36;;;;;;;3.50;3.20;;;;;;;;;;5033252;28;20408;-86
2021/08/03 10:00:03;;;;;;;2.92;2.72;;;;;;;;;;5030365;28;20022;-87
2021/08/03 10:02:28;;;;;;;3.28;3.03;;;;;;;;;;5002488;28;20039;-86
2021/08/03 10:04:54;;;;;;;3.70;3.10;;;;;;;;;;5008496;28;20061;-86
2021/08/03 10:07:20;;;;;;;3.53;2.97;;;;;;;;;;5016278;28;20021;-86
2021/08/03 10:09:46;;;;;;;2.70;2.40;;;;;;;;;;5026271;28;20030;-85
2021/08/03 10:12:12;;;;;;;2.63;2.53;;;;;;;;;;5006372;28;20029;-85
2021/08/03 10:14:37;;;;;;;3.28;3.08;;;;;;;;;;5025044;28;20120;-88
2021/08/03 10:17:03;;;;;;;3.25;3.05;;;;;;;;;;5025159;28;20030;-86
2021/08/03 10:19:29;;;;;;;2.65;2.42;;;;;;;;;;5037972;28;20036;-84
2021/08/03 10:22:03;;;;;;;2.42;2.33;;;;;;;;;;5034820;28;20025;-85
2021/08/03 10:24:30;;;;;;;2.75;2.55;;;;;;;;;;5025675;28;20022;-86
2021/08/03 10:27:13;;;;;;;2.80;2.60;;;;;;;;;;5014836;28;20045;-86
2021/08/03 10:29:49;;;;;;;3.10;2.60;;;;;;;;;;5024920;28;20033;-87
2021/08/03 10:32:33;;;;;;;2.88;2.63;;;;;;;;;;5020272;28;20376;-87
2021/08/03 10:34:59;;;;;;;2.65;2.45;;;;;;;;;;5020010;28;20037;-87
2021/08/03 10:37:25;;;;;;;3.00;2.78;;;;;;;;;;5018616;28;20037;-86
2021/08/03 10:39:57;;;;;;;3.03;2.78;;;;;;;;;;5020186;28;20113;-86
2021/08/03 10:42:23;;;;;;;2.95;2.85;;;;;;;;;;5020243;28;20430;-88
2021/08/03 10:44:50;;;;;;;3.03;2.92;;;;;;;;;;5019643;28;20478;-87
2021/08/03 10:47:30;;;;;;;2.90;2.67;;;;;;;;;;5020836;28;20435;-87
2021/08/03 10:49:57;;;;;;;2.80;2.60;;;;;;;;;;5018889;28;20040;-87
2021/08/03 10:52:40;;;;;;;3.53;3.25;;;;;;;;;;5023287;28;20465;-85
2021/08/03 10:55:06;;;;;;;4.25;2.60;;;;;;;;;;5023484;28;20029;-86
2021/08/03 10:57:31;;;;;;;2.45;2.30;;;;;;;;;;5025379;28;20039;-87
2021/08/03 11:00:00;;;;;;;3.08;2.78;;;;;;;;;;5023347;28;20486;-85
2021/08/03 11:02:34;;;;;;;2.47;2.38;;;;;;;;;;5025987;28;20025;-86
2021/08/03 11:05:00;;;;;;;2.80;2.65;;;;;;;;;;5035502;28;20052;-87
2021/08/03 11:07:29;;;;;;;2.88;2.67;;;;;;;;;;5031281;28;20025;-86
2021/08/03 11:09:56;;;;;;;3.08;2.83;;;;;;;;;;5025544;28;20018;-87
2021/08/03 11:12:40;;;;;;;3.10;2.80;;;;;;;;;;5029852;28;20045;-88
2021/08/03 11:15:37;;;;;;;3.35;3.08;;;;;;;;;;5026247;28;20538;-87
2021/08/03 11:18:07;;;;;;;2.72;2.63;;;;;;;;;;5003173;28;20372;-87
2021/08/03 11:20:35;;;;;;;3.08;2.88;;;;;;;;;;5027621;28;20029;-88
2021/08/03 11:23:01;;;;;;;2.58;2.42;;;;;;;;;;5027781;28;20028;-86
2021/08/03 11:25:27;;;;;;;3.45;2.53;;;;;;;;;;5026406;28;20455;-86
2021/08/03 11:27:52;;;;;;;3.15;2.95;;;;;;;;;;5008395;28;20033;-87
2021/08/03 11:30:18;;;;;;;2.50;2.40;;;;;;;;;;5025745;28;20467;-87
2021/08/03 11:32:47;;;;;;;3.85;2.38;;;;;;;;;;5024791;28;20046;-88
2021/08/03 11:35:12;;;;;;;2.45;2.35;;;;;;;;;;5024041;28;20029;-86
2021/08/03 11:37:40;;;;;;;3.20;2.88;;;;;;;;;;5024428;28;20037;-86
2021/08/03 11:40:06;;;;;;;6.43;2.85;;;;;;;;;;5022451;28;20660;-88
2021/08/03 11:42:34;;;;;;;3.20;3.00;;;;;;;;;;5026660;28;20040;-87
2021/08/03 11:45:00;;;;;;;3.03;2.83;;;;;;;;;;5024353;28;20035;-87
2021/08/03 11:47:36;;;;;;;2.95;2.72;;;;;;;;;;5025862;28;20496;-88
2021/08/03 11:50:02;;;;;;;2.63;2.53;;;;;;;;;;5027914;28;20040;-87
2021/08/03 11:52:31;;;;;;;3.03;2.83;;;;;;;;;;5030246;28;20041;-87
2021/08/03 11:54:59;;;;;;;4.25;3.15;;;;;;;;;;5025230;28;20053;-89
2021/08/03 11:57:34;;;;;;;2.85;2.65;;;;;;;;;;5029709;28;20033;-87
2021/08/03 12:00:10;;;;;;;2.78;2.67;;;;;;;;;;5028774;28;20030;-88
2021/08/03 12:02:36;;;;;;;2.90;2.80;;;;;;;;;;5026745;28;20034;-88
2021/08/03 12:05:08;;;;;;;3.08;2.85;;;;;;;;;;5024845;28;20379;-88
2021/08/03 12:07:34;;;;;;;2.50;2.40;;;;;;;;;;5023850;28;20087;-87
2021/08/03 12:10:00;;;;;;;3.22;3.13;;;;;;;;;;5023898;28;20048;-87
2021/08/03 12:12:27;;;;;;;3.80;3.33;;;;;;;;;;5024529;28;20029;-87
2021/08/03 12:15:09;;;;;;;3.30;3.00;;;;;;;;;;5023881;28;20363;-86
2021/08/03 12:17:37;;;;;;;3.10;2.90;;;;;;;;;;5004473;28;20037;-89
2021/08/03 12:20:23;;;;;;;3.47;3.03;;;;;;;;;;5021233;28;20053;-87
2021/08/03 12:22:48;;;;;;;3.55;3.28;;;;;;;;;;5023246;28;20474;-87
2021/08/03 12:25:13;;;;;;;3.40;3.20;;;;;;;;;;5012866;28;20021;-86
2021/08/03 12:27:40;;;;;;;3.92;3.38;;;;;;;;;;5021173;28;20036;-86
2021/08/03 12:30:06;;;;;;;2.90;2.75;;;;;;;;;;5015835;28;20086;-88
2021/08/03 12:32:38;;;;;;;3.53;3.28;;;;;;;;;;5012366;28;20494;-87
2021/08/03 12:35:10;;;;;;;2.92;2.83;;;;;;;;;;5022121;28;20083;-87
2021/08/03 12:37:35;;;;;;;3.30;3.10;;;;;;;;;;5023738;28;20034;-87
2021/08/03 12:40:01;;;;;;;3.72;3.42;;;;;;;;;;5012680;28;20375;-88
2021/08/03 12:44:55;;;;;;;2.90;2.75;;;;;;;;;;5019833;28;20041;-88
2021/08/03 12:47:26;;;;;;;4.00;3.05;;;;;;;;;;5004294;28;20462;-89
2021/08/03 12:50:00;;;;;;;3.28;2.97;;;;;;;;;;5024021;28;20484;-88
2021/08/03 12:52:25;;;;;;;3.38;2.90;;;;;;;;;;5023775;28;20037;-88
2021/08/03 12:54:56;;;;;;;3.00;2.80;;;;;;;;;;5022128;28;20038;-88
2021/08/03 12:57:23;;;;;;;3.20;2.95;;;;;;;;;;5022074;28;20061;-88
2021/08/03 12:59:49;;;;;;;4.13;3.53;;;;;;;;;;5021818;28;20022;-87
2021/08/03 13:02:15;;;;;;;4.32;3.88;;;;;;;;;;5012387;28;20036;-88
2021/08/03 13:04:41;;;;;;;3.03;2.83;;;;;;;;;;5020126;28;20391;-87
2021/08/03 13:07:06;;;;;;;3.05;2.80;;;;;;;;;;5006244;28;20391;-87
2021/08/03 13:09:32;;;;;;;3.15;2.97;;;;;;;;;;5013218;28;20116;-88
2021/08/03 13:11:58;;;;;;;3.35;2.83;;;;;;;;;;5018980;28;20110;-86
2021/08/03 13:14:23;;;;;;;3.10;2.90;;;;;;;;;;5022299;28;20029;-87
2021/08/03 13:16:54;;;;;;;3.08;2.95;;;;;;;;;;5014256;28;20105;-86
2021/08/03 13:19:20;;;;;;;2.78;2.67;;;;;;;;;;5020653;28;20021;-88
2021/08/03 13:21:45;;;;;;;3.17;2.97;;;;;;;;;;5023123;28;20029;-88
2021/08/03 13:24:10;;;;;;;4.38;3.22;;;;;;;;;;5005369;28;20421;-87
2021/08/03 13:26:35;;;;;;;2.95;2.85;;;;;;;;;;5024958;28;20081;-87
2021/08/03 13:29:03;;;;;;;3.42;3.13;;;;;;;;;;5023708;28;20021;-86
2021/08/03 13:31:28;;;;;;;3.88;3.53;;;;;;;;;;5023008;28;20136;-86
2021/08/03 13:33:53;;;;;;;3.55;3.28;;;;;;;;;;5032461;28;20144;-85
2021/08/03 13:36:20;;;;;;;3.20;3.10;;;;;;;;;;5024359;28;20057;-88
2021/08/03 13:38:45;;;;;;;3.15;3.05;;;;;;;;;;5033444;28;20029;-87
2021/08/03 13:41:10;;;;;;;2.75;2.65;;;;;;;;;;5023343;28;20037;-87
2021/08/03 13:43:36;;;;;;;3.50;3.22;;;;;;;;;;5021672;28;20030;-87
2021/08/03 13:46:01;;;;;;;3.38;3.17;;;;;;;;;;5022480;28;20021;-87
2021/08/03 13:48:26;;;;;;;2.70;2.60;;;;;;;;;;5020238;28;20067;-87
2021/08/03 13:50:52;;;;;;;3.85;3.58;;;;;;;;;;5013535;28;20030;-87
2021/08/03 13:53:17;;;;;;;3.15;3.05;;;;;;;;;;5021425;28;20105;-90
2021/08/03 13:55:42;;;;;;;2.75;2.65;;;;;;;;;;5020396;28;20025;-87
2021/08/03 13:58:07;;;;;;;3.13;2.83;;;;;;;;;;5014267;28;20017;-87
2021/08/03 14:00:33;;;;;;;2.67;2.58;;;;;;;;;;5014497;28;20029;-86
2021/08/03 14:02:58;;;;;;;3.08;2.97;;;;;;;;;;5021457;28;20018;-89
2021/08/03 14:05:23;;;;;;;3.13;2.95;;;;;;;;;;5007026;28;20026;-87
2021/08/03 14:07:48;;;;;;;3.22;3.03;;;;;;;;;;5023492;28;20026;-88
2021/08/03 14:10:14;;;;;;;3.25;3.13;;;;;;;;;;5006374;28;20103;-87
2021/08/03 14:12:39;;;;;;;3.25;3.00;;;;;;;;;;5019817;28;20044;-88
2021/08/03 14:15:05;;;;;;;3.10;2.88;;;;;;;;;;5022414;28;20030;-87
2021/08/03 14:17:30;;;;;;;2.70;2.60;;;;;;;;;;5000201;28;20036;-88
2021/08/03 14:19:55;;;;;;;3.10;3.00;;;;;;;;;;5020949;28;20018;-87
2021/08/03 14:22:21;;;;;;;2.95;2.85;;;;;;;;;;5021564;28;20072;-85
2021/08/03 14:24:46;;;;;;;3.65;3.40;;;;;;;;;;5021097;28;20132;-88
2021/08/03 14:27:11;;;;;;;2.80;2.70;;;;;;;;;;5023742;28;20049;-88
2021/08/03 14:29:37;;;;;;;2.80;2.70;;;;;;;;;;5027900;28;20499;-88
2021/08/03 14:32:06;;;;;;;2.90;2.80;;;;;;;;;;5021975;28;20064;-88
2021/08/03 14:34:31;;;;;;;3.42;3.28;;;;;;;;;;5028956;28;20038;-88
2021/08/03 14:36:57;;;;;;;2.60;2.47;;;;;;;;;;5022355;28;20017;-88
2021/08/03 14:39:22;;;;;;;3.38;3.17;;;;;;;;;;5026166;28;20026;-88
2021/08/03 14:41:47;;;;;;;3.72;3.50;;;;;;;;;;5024610;28;20064;-88
2021/08/03 14:44:13;;;;;;;2.90;2.70;;;;;;;;;;5015506;28;20053;-88
2021/08/03 14:46:38;;;;;;;3.40;3.20;;;;;;;;;;5023338;28;20022;-87
2021/08/03 14:49:05;;;;;;;3.20;2.90;;;;;;;;;;5024065;28;20111;-87